sensor_id;sensor_type;location;lat;lon;timestamp;P1;durP1;ratioP1;P2;durP2;ratioP2
76591;SDS011;65481;47.600;19.682;2023-07-28T00:01:21;3.88;;;2.70;;
76591;SDS011;65481;47.600;19.682;2023-07-28T00:06:22;4.18;;;2.47;;
76591;SDS011;65481;47.600;19.682;2023-07-28T00:11:22;4.00;;;2.50;;
76591;SDS011;65481;47.600;19.682;2023-07-28T00:16:23;3.65;;;2.47;;
76591;SDS011;65481;47.600;19.682;2023-07-28T00:21:23;3.53;;;2.55;;
76591;SDS011;65481;47.600;19.682;2023-07-28T00:26:24;3.83;;;2.60;;
76591;SDS011;65481;47.600;19.682;2023-07-28T00:31:25;4.03;;;2.70;;
76591;SDS011;65481;47.600;19.682;2023-07-28T00:36:25;3.40;;;2.80;;
76591;SDS011;65481;47.600;19.682;2023-07-28T00:41:26;3.80;;;2.67;;
76591;SDS011;65481;47.600;19.682;2023-07-28T00:46:27;3.17;;;2.50;;
76591;SDS011;65481;47.600;19.682;2023-07-28T00:51:27;5.22;;;2.58;;
76591;SDS011;65481;47.600;19.682;2023-07-28T00:56:28;4.97;;;2.83;;
76591;SDS011;65481;47.600;19.682;2023-07-28T01:01:29;3.60;;;2.60;;
76591;SDS011;65481;47.600;19.682;2023-07-28T01:11:56;4.18;;;2.50;;
76591;SDS011;65481;47.600;19.682;2023-07-28T01:16:58;4.43;;;2.80;;
76591;SDS011;65481;47.600;19.682;2023-07-28T01:22:13;5.88;;;2.67;;
76591;SDS011;65481;47.600;19.682;2023-07-28T01:27:30;4.22;;;2.78;;
76591;SDS011;65481;47.600;19.682;2023-07-28T01:32:32;3.63;;;2.50;;
76591;SDS011;65481;47.600;19.682;2023-07-28T01:37:32;3.58;;;2.42;;
76591;SDS011;65481;47.600;19.682;2023-07-28T01:42:33;4.47;;;2.75;;
76591;SDS011;65481;47.600;19.682;2023-07-28T01:47:33;4.32;;;2.80;;
76591;SDS011;65481;47.600;19.682;2023-07-28T01:52:34;3.80;;;2.35;;
76591;SDS011;65481;47.600;19.682;2023-07-28T01:57:34;6.13;;;2.80;;
76591;SDS011;65481;47.600;19.682;2023-07-28T02:02:35;3.85;;;2.88;;
76591;SDS011;65481;47.600;19.682;2023-07-28T02:07:35;4.68;;;2.78;;
76591;SDS011;65481;47.600;19.682;2023-07-28T02:12:37;4.10;;;2.80;;
76591;SDS011;65481;47.600;19.682;2023-07-28T02:17:38;3.42;;;2.45;;
76591;SDS011;65481;47.600;19.682;2023-07-28T02:22:39;3.90;;;2.58;;
76591;SDS011;65481;47.600;19.682;2023-07-28T02:27:40;2.85;;;2.47;;
76591;SDS011;65481;47.600;19.682;2023-07-28T02:32:40;7.30;;;2.95;;
76591;SDS011;65481;47.600;19.682;2023-07-28T02:37:41;5.03;;;2.67;;
76591;SDS011;65481;47.600;19.682;2023-07-28T02:42:42;4.18;;;2.75;;
76591;SDS011;65481;47.600;19.682;2023-07-28T02:47:43;4.55;;;2.80;;
76591;SDS011;65481;47.600;19.682;2023-07-28T02:52:43;4.97;;;2.75;;
76591;SDS011;65481;47.600;19.682;2023-07-28T02:57:44;3.80;;;2.80;;
76591;SDS011;65481;47.600;19.682;2023-07-28T03:02:44;5.03;;;2.80;;
76591;SDS011;65481;47.600;19.682;2023-07-28T03:07:46;5.05;;;2.95;;
76591;SDS011;65481;47.600;19.682;2023-07-28T03:12:48;5.00;;;2.80;;
76591;SDS011;65481;47.600;19.682;2023-07-28T03:17:49;4.85;;;3.40;;
76591;SDS011;65481;47.600;19.682;2023-07-28T03:22:50;4.53;;;3.20;;
76591;SDS011;65481;47.600;19.682;2023-07-28T03:27:51;5.32;;;3.38;;
76591;SDS011;65481;47.600;19.682;2023-07-28T03:32:52;5.50;;;2.92;;
76591;SDS011;65481;47.600;19.682;2023-07-28T03:37:53;6.45;;;3.80;;
76591;SDS011;65481;47.600;19.682;2023-07-28T03:42:54;4.88;;;3.28;;
76591;SDS011;65481;47.600;19.682;2023-07-28T03:47:54;6.45;;;3.38;;
76591;SDS011;65481;47.600;19.682;2023-07-28T03:52:55;5.28;;;3.40;;
76591;SDS011;65481;47.600;19.682;2023-07-28T03:57:55;6.05;;;3.53;;
76591;SDS011;65481;47.600;19.682;2023-07-28T04:02:56;8.38;;;4.07;;
76591;SDS011;65481;47.600;19.682;2023-07-28T04:07:56;6.13;;;3.75;;
76591;SDS011;65481;47.600;19.682;2023-07-28T04:12:57;6.18;;;4.03;;
76591;SDS011;65481;47.600;19.682;2023-07-28T04:17:57;8.35;;;3.83;;
76591;SDS011;65481;47.600;19.682;2023-07-28T04:22:58;6.55;;;3.72;;
76591;SDS011;65481;47.600;19.682;2023-07-28T04:28:00;7.65;;;3.80;;
76591;SDS011;65481;47.600;19.682;2023-07-28T04:33:00;7.57;;;3.95;;
76591;SDS011;65481;47.600;19.682;2023-07-28T04:38:01;6.97;;;4.38;;
76591;SDS011;65481;47.600;19.682;2023-07-28T04:43:01;7.25;;;3.90;;
76591;SDS011;65481;47.600;19.682;2023-07-28T04:48:02;7.45;;;3.92;;
76591;SDS011;65481;47.600;19.682;2023-07-28T04:53:03;8.00;;;4.20;;
76591;SDS011;65481;47.600;19.682;2023-07-28T04:58:03;4.95;;;3.17;;
76591;SDS011;65481;47.600;19.682;2023-07-28T05:03:04;7.35;;;3.70;;
76591;SDS011;65481;47.600;19.682;2023-07-28T05:08:04;4.65;;;3.28;;
76591;SDS011;65481;47.600;19.682;2023-07-28T05:13:06;7.57;;;3.50;;
76591;SDS011;65481;47.600;19.682;2023-07-28T05:18:06;5.25;;;3.17;;
76591;SDS011;65481;47.600;19.682;2023-07-28T05:23:07;7.22;;;3.30;;
76591;SDS011;65481;47.600;19.682;2023-07-28T05:28:07;6.20;;;3.70;;
76591;SDS011;65481;47.600;19.682;2023-07-28T05:33:08;4.35;;;2.80;;
76591;SDS011;65481;47.600;19.682;2023-07-28T05:38:08;6.40;;;2.88;;
76591;SDS011;65481;47.600;19.682;2023-07-28T05:43:09;3.38;;;2.50;;
76591;SDS011;65481;47.600;19.682;2023-07-28T05:48:09;3.30;;;2.70;;
76591;SDS011;65481;47.600;19.682;2023-07-28T05:53:10;3.80;;;2.60;;
76591;SDS011;65481;47.600;19.682;2023-07-28T05:58:10;3.38;;;2.47;;
76591;SDS011;65481;47.600;19.682;2023-07-28T06:03:11;2.63;;;2.30;;
76591;SDS011;65481;47.600;19.682;2023-07-28T06:08:14;6.13;;;2.30;;
76591;SDS011;65481;47.600;19.682;2023-07-28T06:13:14;4.13;;;2.15;;
76591;SDS011;65481;47.600;19.682;2023-07-28T06:18:15;3.33;;;2.50;;
76591;SDS011;65481;47.600;19.682;2023-07-28T06:23:16;3.72;;;2.08;;
76591;SDS011;65481;47.600;19.682;2023-07-28T06:28:17;4.28;;;2.03;;
76591;SDS011;65481;47.600;19.682;2023-07-28T06:33:17;4.32;;;2.08;;
76591;SDS011;65481;47.600;19.682;2023-07-28T06:38:18;4.07;;;2.03;;
76591;SDS011;65481;47.600;19.682;2023-07-28T06:43:18;2.47;;;1.98;;
76591;SDS011;65481;47.600;19.682;2023-07-28T06:48:19;3.63;;;2.40;;
76591;SDS011;65481;47.600;19.682;2023-07-28T06:53:20;3.05;;;2.22;;
76591;SDS011;65481;47.600;19.682;2023-07-28T06:58:21;3.30;;;1.90;;
76591;SDS011;65481;47.600;19.682;2023-07-28T07:03:21;4.00;;;2.20;;
76591;SDS011;65481;47.600;19.682;2023-07-28T07:08:24;2.25;;;1.77;;
76591;SDS011;65481;47.600;19.682;2023-07-28T07:13:24;2.95;;;1.77;;
76591;SDS011;65481;47.600;19.682;2023-07-28T07:18:25;3.13;;;1.77;;
76591;SDS011;65481;47.600;19.682;2023-07-28T07:23:25;2.20;;;1.40;;
76591;SDS011;65481;47.600;19.682;2023-07-28T07:28:26;2.65;;;1.70;;
76591;SDS011;65481;47.600;19.682;2023-07-28T07:33:28;2.05;;;1.70;;
76591;SDS011;65481;47.600;19.682;2023-07-28T07:38:28;2.42;;;1.75;;
76591;SDS011;65481;47.600;19.682;2023-07-28T07:43:29;2.67;;;1.70;;
76591;SDS011;65481;47.600;19.682;2023-07-28T07:48:29;2.50;;;1.70;;
76591;SDS011;65481;47.600;19.682;2023-07-28T07:53:30;2.40;;;1.70;;
76591;SDS011;65481;47.600;19.682;2023-07-28T07:58:31;2.00;;;1.67;;
76591;SDS011;65481;47.600;19.682;2023-07-28T08:03:31;2.33;;;1.48;;
76591;SDS011;65481;47.600;19.682;2023-07-28T08:08:32;2.85;;;1.58;;
76591;SDS011;65481;47.600;19.682;2023-07-28T08:13:32;2.33;;;1.60;;
76591;SDS011;65481;47.600;19.682;2023-07-28T08:18:33;2.55;;;1.40;;
76591;SDS011;65481;47.600;19.682;2023-07-28T08:23:33;3.92;;;1.65;;
76591;SDS011;65481;47.600;19.682;2023-07-28T08:28:34;2.95;;;1.50;;
76591;SDS011;65481;47.600;19.682;2023-07-28T08:33:34;1.98;;;1.58;;
76591;SDS011;65481;47.600;19.682;2023-07-28T08:38:35;2.20;;;1.63;;
76591;SDS011;65481;47.600;19.682;2023-07-28T08:43:36;2.67;;;1.45;;
76591;SDS011;65481;47.600;19.682;2023-07-28T08:48:37;1.40;;;1.30;;
76591;SDS011;65481;47.600;19.682;2023-07-28T08:53:37;3.20;;;2.00;;
76591;SDS011;65481;47.600;19.682;2023-07-28T08:58:38;2.75;;;1.60;;
76591;SDS011;65481;47.600;19.682;2023-07-28T09:03:40;1.70;;;1.50;;
76591;SDS011;65481;47.600;19.682;2023-07-28T09:08:43;3.30;;;1.65;;
76591;SDS011;65481;47.600;19.682;2023-07-28T09:13:43;3.33;;;1.65;;
76591;SDS011;65481;47.600;19.682;2023-07-28T09:18:44;2.00;;;1.65;;
76591;SDS011;65481;47.600;19.682;2023-07-28T09:23:44;2.10;;;1.73;;
76591;SDS011;65481;47.600;19.682;2023-07-28T09:28:45;3.40;;;1.73;;
76591;SDS011;65481;47.600;19.682;2023-07-28T09:33:46;2.40;;;1.80;;
76591;SDS011;65481;47.600;19.682;2023-07-28T09:38:47;2.30;;;1.70;;
76591;SDS011;65481;47.600;19.682;2023-07-28T09:43:51;2.00;;;1.63;;
76591;SDS011;65481;47.600;19.682;2023-07-28T09:48:52;2.17;;;1.50;;
76591;SDS011;65481;47.600;19.682;2023-07-28T09:54:07;1.80;;;1.50;;
76591;SDS011;65481;47.600;19.682;2023-07-28T09:59:13;2.95;;;1.90;;
76591;SDS011;65481;47.600;19.682;2023-07-28T10:04:17;3.33;;;1.80;;
76591;SDS011;65481;47.600;19.682;2023-07-28T10:09:18;1.85;;;1.60;;
76591;SDS011;65481;47.600;19.682;2023-07-28T10:14:28;3.25;;;1.65;;
76591;SDS011;65481;47.600;19.682;2023-07-28T10:19:36;2.85;;;1.77;;
76591;SDS011;65481;47.600;19.682;2023-07-28T10:24:53;2.92;;;2.15;;
76591;SDS011;65481;47.600;19.682;2023-07-28T10:29:59;3.58;;;1.95;;
76591;SDS011;65481;47.600;19.682;2023-07-28T10:35:01;3.00;;;1.60;;
76591;SDS011;65481;47.600;19.682;2023-07-28T10:45:31;2.80;;;1.77;;
76591;SDS011;65481;47.600;19.682;2023-07-28T10:50:32;1.80;;;1.65;;
76591;SDS011;65481;47.600;19.682;2023-07-28T10:55:32;2.38;;;1.88;;
76591;SDS011;65481;47.600;19.682;2023-07-28T11:00:35;3.70;;;1.92;;
76591;SDS011;65481;47.600;19.682;2023-07-28T11:05:36;3.83;;;1.90;;
76591;SDS011;65481;47.600;19.682;2023-07-28T11:10:37;2.25;;;1.90;;
76591;SDS011;65481;47.600;19.682;2023-07-28T11:15:38;3.60;;;1.88;;
76591;SDS011;65481;47.600;19.682;2023-07-28T11:20:38;3.05;;;1.80;;
76591;SDS011;65481;47.600;19.682;2023-07-28T11:25:39;4.25;;;1.88;;
76591;SDS011;65481;47.600;19.682;2023-07-28T11:30:39;3.88;;;1.98;;
76591;SDS011;65481;47.600;19.682;2023-07-28T11:35:43;2.20;;;1.80;;
76591;SDS011;65481;47.600;19.682;2023-07-28T11:40:45;4.70;;;2.00;;
76591;SDS011;65481;47.600;19.682;2023-07-28T11:45:45;3.58;;;1.80;;
76591;SDS011;65481;47.600;19.682;2023-07-28T11:50:46;5.70;;;2.20;;
76591;SDS011;65481;47.600;19.682;2023-07-28T11:55:46;4.18;;;2.03;;
76591;SDS011;65481;47.600;19.682;2023-07-28T12:00:47;2.85;;;2.25;;
76591;SDS011;65481;47.600;19.682;2023-07-28T12:06:03;2.87;;;1.90;;
76591;SDS011;65481;47.600;19.682;2023-07-28T12:11:11;2.67;;;1.77;;
76591;SDS011;65481;47.600;19.682;2023-07-28T12:16:30;3.42;;;2.30;;
76591;SDS011;65481;47.600;19.682;2023-07-28T12:21:43;2.72;;;2.10;;
76591;SDS011;65481;47.600;19.682;2023-07-28T12:26:45;2.43;;;1.80;;
76591;SDS011;65481;47.600;19.682;2023-07-28T12:31:46;5.28;;;1.92;;
76591;SDS011;65481;47.600;19.682;2023-07-28T12:36:46;2.65;;;1.80;;
76591;SDS011;65481;47.600;19.682;2023-07-28T12:41:47;3.23;;;1.67;;
76591;SDS011;65481;47.600;19.682;2023-07-28T12:46:47;3.03;;;1.90;;
76591;SDS011;65481;47.600;19.682;2023-07-28T12:51:48;3.53;;;1.80;;
76591;SDS011;65481;47.600;19.682;2023-07-28T12:56:48;3.60;;;1.85;;
76591;SDS011;65481;47.600;19.682;2023-07-28T13:01:49;3.00;;;1.88;;
76591;SDS011;65481;47.600;19.682;2023-07-28T13:06:52;3.00;;;1.90;;
76591;SDS011;65481;47.600;19.682;2023-07-28T13:11:53;5.15;;;1.70;;
76591;SDS011;65481;47.600;19.682;2023-07-28T13:16:53;17.67;;;4.90;;
76591;SDS011;65481;47.600;19.682;2023-07-28T13:21:53;3.90;;;2.00;;
76591;SDS011;65481;47.600;19.682;2023-07-28T13:26:54;3.70;;;2.00;;
76591;SDS011;65481;47.600;19.682;2023-07-28T13:31:57;2.55;;;1.70;;
76591;SDS011;65481;47.600;19.682;2023-07-28T13:37:00;4.13;;;2.00;;
76591;SDS011;65481;47.600;19.682;2023-07-28T13:42:00;2.80;;;1.87;;
76591;SDS011;65481;47.600;19.682;2023-07-28T13:47:01;2.83;;;2.15;;
76591;SDS011;65481;47.600;19.682;2023-07-28T13:52:02;3.03;;;2.00;;
76591;SDS011;65481;47.600;19.682;2023-07-28T13:57:03;3.65;;;2.35;;
76591;SDS011;65481;47.600;19.682;2023-07-28T14:02:04;5.78;;;2.03;;
76591;SDS011;65481;47.600;19.682;2023-07-28T14:07:04;4.63;;;1.85;;
76591;SDS011;65481;47.600;19.682;2023-07-28T14:12:05;2.25;;;1.83;;
76591;SDS011;65481;47.600;19.682;2023-07-28T14:17:06;3.08;;;1.80;;
76591;SDS011;65481;47.600;19.682;2023-07-28T14:22:06;3.13;;;2.00;;
76591;SDS011;65481;47.600;19.682;2023-07-28T14:27:07;2.55;;;1.92;;
76591;SDS011;65481;47.600;19.682;2023-07-28T14:32:08;3.13;;;1.85;;
76591;SDS011;65481;47.600;19.682;2023-07-28T14:37:08;3.03;;;2.00;;
76591;SDS011;65481;47.600;19.682;2023-07-28T14:42:09;2.23;;;1.80;;
76591;SDS011;65481;47.600;19.682;2023-07-28T14:47:09;3.33;;;1.70;;
76591;SDS011;65481;47.600;19.682;2023-07-28T14:52:10;5.13;;;1.92;;
76591;SDS011;65481;47.600;19.682;2023-07-28T14:57:11;2.17;;;1.90;;
76591;SDS011;65481;47.600;19.682;2023-07-28T15:02:15;2.73;;;2.30;;
76591;SDS011;65481;47.600;19.682;2023-07-28T15:07:15;3.30;;;2.03;;
76591;SDS011;65481;47.600;19.682;2023-07-28T15:12:18;3.20;;;1.90;;
76591;SDS011;65481;47.600;19.682;2023-07-28T15:17:18;2.45;;;1.90;;
76591;SDS011;65481;47.600;19.682;2023-07-28T15:22:19;2.50;;;2.00;;
76591;SDS011;65481;47.600;19.682;2023-07-28T15:27:19;4.57;;;1.85;;
76591;SDS011;65481;47.600;19.682;2023-07-28T15:32:20;5.82;;;1.90;;
76591;SDS011;65481;47.600;19.682;2023-07-28T15:37:20;2.63;;;2.00;;
76591;SDS011;65481;47.600;19.682;2023-07-28T15:42:22;2.63;;;2.10;;
76591;SDS011;65481;47.600;19.682;2023-07-28T15:47:22;1.90;;;1.70;;
76591;SDS011;65481;47.600;19.682;2023-07-28T15:52:24;3.03;;;1.90;;
76591;SDS011;65481;47.600;19.682;2023-07-28T15:57:25;2.30;;;1.75;;
76591;SDS011;65481;47.600;19.682;2023-07-28T16:02:25;3.33;;;1.83;;
76591;SDS011;65481;47.600;19.682;2023-07-28T16:07:26;2.67;;;1.70;;
76591;SDS011;65481;47.600;19.682;2023-07-28T16:12:27;2.95;;;2.03;;
76591;SDS011;65481;47.600;19.682;2023-07-28T16:17:27;6.00;;;1.90;;
76591;SDS011;65481;47.600;19.682;2023-07-28T16:22:28;4.28;;;1.92;;
76591;SDS011;65481;47.600;19.682;2023-07-28T16:27:28;13.20;;;2.50;;
76591;SDS011;65481;47.600;19.682;2023-07-28T16:32:29;4.70;;;2.08;;
76591;SDS011;65481;47.600;19.682;2023-07-28T16:37:29;4.57;;;2.10;;
76591;SDS011;65481;47.600;19.682;2023-07-28T16:42:30;7.82;;;2.22;;
76591;SDS011;65481;47.600;19.682;2023-07-28T16:47:31;3.08;;;2.10;;
76591;SDS011;65481;47.600;19.682;2023-07-28T16:52:36;10.20;;;3.28;;
76591;SDS011;65481;47.600;19.682;2023-07-28T16:57:37;5.03;;;2.60;;
76591;SDS011;65481;47.600;19.682;2023-07-28T17:02:37;5.55;;;2.72;;
76591;SDS011;65481;47.600;19.682;2023-07-28T17:07:38;7.60;;;3.65;;
76591;SDS011;65481;47.600;19.682;2023-07-28T17:12:40;4.13;;;3.22;;
76591;SDS011;65481;47.600;19.682;2023-07-28T17:17:40;6.10;;;3.35;;
76591;SDS011;65481;47.600;19.682;2023-07-28T17:22:41;8.50;;;3.60;;
76591;SDS011;65481;47.600;19.682;2023-07-28T17:27:41;5.03;;;3.53;;
76591;SDS011;65481;47.600;19.682;2023-07-28T17:32:42;14.60;;;3.53;;
76591;SDS011;65481;47.600;19.682;2023-07-28T17:37:42;7.30;;;3.28;;
76591;SDS011;65481;47.600;19.682;2023-07-28T17:42:43;3.88;;;2.70;;
76591;SDS011;65481;47.600;19.682;2023-07-28T17:47:43;6.75;;;3.00;;
76591;SDS011;65481;47.600;19.682;2023-07-28T17:52:44;5.57;;;3.13;;
76591;SDS011;65481;47.600;19.682;2023-07-28T17:57:45;6.47;;;3.67;;
76591;SDS011;65481;47.600;19.682;2023-07-28T18:02:46;6.00;;;3.85;;
76591;SDS011;65481;47.600;19.682;2023-07-28T18:07:46;6.70;;;3.72;;
76591;SDS011;65481;47.600;19.682;2023-07-28T18:12:47;6.72;;;3.58;;
76591;SDS011;65481;47.600;19.682;2023-07-28T18:17:48;5.72;;;3.72;;
76591;SDS011;65481;47.600;19.682;2023-07-28T18:22:53;5.68;;;3.45;;
76591;SDS011;65481;47.600;19.682;2023-07-28T18:27:56;4.68;;;3.15;;
76591;SDS011;65481;47.600;19.682;2023-07-28T18:32:58;13.90;;;5.90;;
76591;SDS011;65481;47.600;19.682;2023-07-28T18:37:58;7.88;;;4.88;;
76591;SDS011;65481;47.600;19.682;2023-07-28T18:42:59;6.70;;;4.13;;
76591;SDS011;65481;47.600;19.682;2023-07-28T18:48:00;6.85;;;3.78;;
76591;SDS011;65481;47.600;19.682;2023-07-28T18:53:01;4.68;;;3.75;;
76591;SDS011;65481;47.600;19.682;2023-07-28T18:58:02;6.15;;;3.10;;
76591;SDS011;65481;47.600;19.682;2023-07-28T19:03:04;8.63;;;3.53;;
76591;SDS011;65481;47.600;19.682;2023-07-28T19:08:05;5.68;;;3.72;;
76591;SDS011;65481;47.600;19.682;2023-07-28T19:13:06;6.47;;;3.88;;
76591;SDS011;65481;47.600;19.682;2023-07-28T19:18:07;6.40;;;3.00;;
76591;SDS011;65481;47.600;19.682;2023-07-28T19:23:08;6.57;;;3.65;;
76591;SDS011;65481;47.600;19.682;2023-07-28T19:28:10;7.28;;;3.42;;
76591;SDS011;65481;47.600;19.682;2023-07-28T19:33:11;5.50;;;3.55;;
76591;SDS011;65481;47.600;19.682;2023-07-28T19:38:12;6.93;;;4.10;;
76591;SDS011;65481;47.600;19.682;2023-07-28T19:43:15;6.15;;;3.60;;
76591;SDS011;65481;47.600;19.682;2023-07-28T19:48:16;4.38;;;3.15;;
76591;SDS011;65481;47.600;19.682;2023-07-28T19:53:17;7.35;;;3.63;;
76591;SDS011;65481;47.600;19.682;2023-07-28T19:58:18;4.60;;;3.60;;
76591;SDS011;65481;47.600;19.682;2023-07-28T20:03:19;8.70;;;4.03;;
76591;SDS011;65481;47.600;19.682;2023-07-28T20:08:21;6.63;;;4.07;;
76591;SDS011;65481;47.600;19.682;2023-07-28T20:13:21;5.53;;;3.95;;
76591;SDS011;65481;47.600;19.682;2023-07-28T20:18:22;6.45;;;3.88;;
76591;SDS011;65481;47.600;19.682;2023-07-28T20:23:23;9.00;;;4.57;;
76591;SDS011;65481;47.600;19.682;2023-07-28T20:28:24;9.70;;;4.40;;
76591;SDS011;65481;47.600;19.682;2023-07-28T20:33:27;8.07;;;4.30;;
76591;SDS011;65481;47.600;19.682;2023-07-28T20:38:27;6.10;;;4.72;;
76591;SDS011;65481;47.600;19.682;2023-07-28T20:43:29;6.80;;;4.45;;
76591;SDS011;65481;47.600;19.682;2023-07-28T20:48:31;5.68;;;3.65;;
76591;SDS011;65481;47.600;19.682;2023-07-28T20:53:32;7.28;;;4.10;;
76591;SDS011;65481;47.600;19.682;2023-07-28T20:58:33;6.70;;;3.88;;
76591;SDS011;65481;47.600;19.682;2023-07-28T21:03:33;6.07;;;4.38;;
76591;SDS011;65481;47.600;19.682;2023-07-28T21:08:34;6.97;;;4.60;;
76591;SDS011;65481;47.600;19.682;2023-07-28T21:13:34;7.25;;;4.00;;
76591;SDS011;65481;47.600;19.682;2023-07-28T21:18:35;5.25;;;3.88;;
76591;SDS011;65481;47.600;19.682;2023-07-28T21:23:35;6.78;;;3.70;;
76591;SDS011;65481;47.600;19.682;2023-07-28T21:28:36;13.00;;;4.03;;
76591;SDS011;65481;47.600;19.682;2023-07-28T21:33:36;7.15;;;3.78;;
76591;SDS011;65481;47.600;19.682;2023-07-28T21:38:37;6.80;;;3.30;;
76591;SDS011;65481;47.600;19.682;2023-07-28T21:43:37;6.28;;;3.72;;
76591;SDS011;65481;47.600;19.682;2023-07-28T21:48:37;4.75;;;3.40;;
76591;SDS011;65481;47.600;19.682;2023-07-28T21:53:38;7.10;;;3.50;;
76591;SDS011;65481;47.600;19.682;2023-07-28T21:58:38;4.80;;;3.83;;
76591;SDS011;65481;47.600;19.682;2023-07-28T22:03:39;4.97;;;3.70;;
76591;SDS011;65481;47.600;19.682;2023-07-28T22:08:41;7.45;;;4.40;;
76591;SDS011;65481;47.600;19.682;2023-07-28T22:13:42;8.55;;;4.50;;
76591;SDS011;65481;47.600;19.682;2023-07-28T22:18:42;4.72;;;3.47;;
76591;SDS011;65481;47.600;19.682;2023-07-28T22:23:43;8.15;;;3.70;;
76591;SDS011;65481;47.600;19.682;2023-07-28T22:28:43;8.00;;;3.92;;
76591;SDS011;65481;47.600;19.682;2023-07-28T22:33:44;8.90;;;3.92;;
76591;SDS011;65481;47.600;19.682;2023-07-28T22:38:44;6.35;;;3.83;;
76591;SDS011;65481;47.600;19.682;2023-07-28T22:43:45;7.03;;;3.83;;
76591;SDS011;65481;47.600;19.682;2023-07-28T22:48:45;9.18;;;4.32;;
76591;SDS011;65481;47.600;19.682;2023-07-28T22:53:45;8.95;;;4.40;;
76591;SDS011;65481;47.600;19.682;2023-07-28T22:58:46;6.22;;;4.18;;
76591;SDS011;65481;47.600;19.682;2023-07-28T23:03:46;6.20;;;3.90;;
76591;SDS011;65481;47.600;19.682;2023-07-28T23:08:47;7.35;;;3.97;;
76591;SDS011;65481;47.600;19.682;2023-07-28T23:13:47;6.22;;;3.88;;
76591;SDS011;65481;47.600;19.682;2023-07-28T23:18:48;4.93;;;4.03;;
76591;SDS011;65481;47.600;19.682;2023-07-28T23:23:49;4.90;;;3.90;;
76591;SDS011;65481;47.600;19.682;2023-07-28T23:28:49;5.85;;;3.95;;
76591;SDS011;65481;47.600;19.682;2023-07-28T23:33:51;6.53;;;4.07;;
76591;SDS011;65481;47.600;19.682;2023-07-28T23:38:51;6.22;;;4.10;;
76591;SDS011;65481;47.600;19.682;2023-07-28T23:43:53;6.80;;;3.95;;
76591;SDS011;65481;47.600;19.682;2023-07-28T23:48:54;7.57;;;5.45;;
76591;SDS011;65481;47.600;19.682;2023-07-28T23:53:54;7.40;;;3.58;;
76591;SDS011;65481;47.600;19.682;2023-07-28T23:58:55;7.63;;;3.88;;
